sensor_id;sensor_type;location;lat;lon;timestamp;P1;durP1;ratioP1;P2;durP2;ratioP2
30307;SDS011;17114;52.314;8.910;2023-01-15T00:02:23;4.82;;;1.05;;
30307;SDS011;17114;52.314;8.910;2023-01-15T00:04:52;5.68;;;1.30;;
30307;SDS011;17114;52.314;8.910;2023-01-15T00:07:19;5.72;;;1.40;;
30307;SDS011;17114;52.314;8.910;2023-01-15T00:09:48;4.75;;;0.90;;
30307;SDS011;17114;52.314;8.910;2023-01-15T00:12:16;4.30;;;0.90;;
30307;SDS011;17114;52.314;8.910;2023-01-15T00:14:43;3.08;;;0.98;;
30307;SDS011;17114;52.314;8.910;2023-01-15T00:17:11;4.25;;;1.08;;
30307;SDS011;17114;52.314;8.910;2023-01-15T00:19:38;5.95;;;1.33;;
30307;SDS011;17114;52.314;8.910;2023-01-15T00:22:06;5.10;;;1.00;;
30307;SDS011;17114;52.314;8.910;2023-01-15T00:24:33;4.25;;;1.13;;
30307;SDS011;17114;52.314;8.910;2023-01-15T00:27:19;7.80;;;1.42;;
30307;SDS011;17114;52.314;8.910;2023-01-15T00:30:05;3.03;;;1.02;;
30307;SDS011;17114;52.314;8.910;2023-01-15T00:32:39;7.47;;;0.98;;
30307;SDS011;17114;52.314;8.910;2023-01-15T00:35:10;3.30;;;0.70;;
30307;SDS011;17114;52.314;8.910;2023-01-15T00:37:39;3.05;;;0.95;;
30307;SDS011;17114;52.314;8.910;2023-01-15T00:40:07;6.93;;;1.42;;
30307;SDS011;17114;52.314;8.910;2023-01-15T00:42:35;7.78;;;1.30;;
30307;SDS011;17114;52.314;8.910;2023-01-15T00:45:03;2.28;;;0.95;;
30307;SDS011;17114;52.314;8.910;2023-01-15T00:47:39;7.78;;;2.50;;
30307;SDS011;17114;52.314;8.910;2023-01-15T00:50:08;8.38;;;2.55;;
30307;SDS011;17114;52.314;8.910;2023-01-15T00:52:38;6.57;;;2.20;;
30307;SDS011;17114;52.314;8.910;2023-01-15T00:55:05;10.82;;;3.13;;
30307;SDS011;17114;52.314;8.910;2023-01-15T00:57:35;11.30;;;3.80;;
30307;SDS011;17114;52.314;8.910;2023-01-15T01:00:03;6.32;;;2.15;;
30307;SDS011;17114;52.314;8.910;2023-01-15T01:02:31;2.85;;;1.05;;
30307;SDS011;17114;52.314;8.910;2023-01-15T01:04:58;3.58;;;0.90;;
30307;SDS011;17114;52.314;8.910;2023-01-15T01:07:25;1.20;;;0.77;;
30307;SDS011;17114;52.314;8.910;2023-01-15T01:09:53;2.95;;;1.55;;
30307;SDS011;17114;52.314;8.910;2023-01-15T01:12:20;2.70;;;0.88;;
30307;SDS011;17114;52.314;8.910;2023-01-15T01:14:49;4.13;;;1.23;;
30307;SDS011;17114;52.314;8.910;2023-01-15T01:17:16;3.58;;;0.95;;
30307;SDS011;17114;52.314;8.910;2023-01-15T01:19:43;3.47;;;0.80;;
30307;SDS011;17114;52.314;8.910;2023-01-15T01:22:10;1.50;;;0.70;;
30307;SDS011;17114;52.314;8.910;2023-01-15T01:24:38;4.85;;;0.85;;
30307;SDS011;17114;52.314;8.910;2023-01-15T01:27:05;3.30;;;0.80;;
30307;SDS011;17114;52.314;8.910;2023-01-15T01:29:33;5.55;;;1.08;;
30307;SDS011;17114;52.314;8.910;2023-01-15T01:32:00;2.90;;;0.98;;
30307;SDS011;17114;52.314;8.910;2023-01-15T01:34:29;7.10;;;1.30;;
30307;SDS011;17114;52.314;8.910;2023-01-15T01:36:57;4.57;;;0.90;;
30307;SDS011;17114;52.314;8.910;2023-01-15T01:39:24;4.10;;;0.93;;
30307;SDS011;17114;52.314;8.910;2023-01-15T01:41:51;3.33;;;1.02;;
30307;SDS011;17114;52.314;8.910;2023-01-15T01:47:10;3.17;;;0.73;;
30307;SDS011;17114;52.314;8.910;2023-01-15T01:49:44;2.15;;;0.57;;
30307;SDS011;17114;52.314;8.910;2023-01-15T01:52:14;1.92;;;0.70;;
30307;SDS011;17114;52.314;8.910;2023-01-15T01:54:45;1.85;;;1.10;;
30307;SDS011;17114;52.314;8.910;2023-01-15T01:57:15;1.85;;;0.65;;
30307;SDS011;17114;52.314;8.910;2023-01-15T01:59:43;1.52;;;0.70;;
30307;SDS011;17114;52.314;8.910;2023-01-15T02:02:11;4.30;;;1.30;;
30307;SDS011;17114;52.314;8.910;2023-01-15T02:04:39;4.57;;;1.27;;
30307;SDS011;17114;52.314;8.910;2023-01-15T02:07:07;2.22;;;0.63;;
30307;SDS011;17114;52.314;8.910;2023-01-15T02:09:34;3.00;;;1.65;;
30307;SDS011;17114;52.314;8.910;2023-01-15T02:12:08;5.25;;;0.80;;
30307;SDS011;17114;52.314;8.910;2023-01-15T02:20:40;4.38;;;1.15;;
30307;SDS011;17114;52.314;8.910;2023-01-15T02:23:29;3.33;;;0.70;;
30307;SDS011;17114;52.314;8.910;2023-01-15T02:26:07;1.02;;;0.50;;
30307;SDS011;17114;52.314;8.910;2023-01-15T02:28:57;2.53;;;0.88;;
30307;SDS011;17114;52.314;8.910;2023-01-15T02:31:28;3.85;;;0.70;;
30307;SDS011;17114;52.314;8.910;2023-01-15T02:36:29;6.03;;;0.93;;
30307;SDS011;17114;52.314;8.910;2023-01-15T02:39:02;1.98;;;0.85;;
30307;SDS011;17114;52.314;8.910;2023-01-15T02:41:47;2.60;;;0.80;;
30307;SDS011;17114;52.314;8.910;2023-01-15T02:44:18;4.75;;;1.00;;
30307;SDS011;17114;52.314;8.910;2023-01-15T02:46:47;3.72;;;1.00;;
30307;SDS011;17114;52.314;8.910;2023-01-15T02:49:16;5.15;;;1.63;;
30307;SDS011;17114;52.314;8.910;2023-01-15T02:51:52;5.57;;;0.95;;
30307;SDS011;17114;52.314;8.910;2023-01-15T02:54:23;2.63;;;1.15;;
30307;SDS011;17114;52.314;8.910;2023-01-15T02:56:53;7.45;;;1.42;;
30307;SDS011;17114;52.314;8.910;2023-01-15T02:59:24;5.55;;;1.42;;
30307;SDS011;17114;52.314;8.910;2023-01-15T03:01:58;6.35;;;1.00;;
30307;SDS011;17114;52.314;8.910;2023-01-15T03:09:44;1.88;;;0.80;;
30307;SDS011;17114;52.314;8.910;2023-01-15T03:12:14;5.53;;;1.17;;
30307;SDS011;17114;52.314;8.910;2023-01-15T03:17:53;3.90;;;0.95;;
30307;SDS011;17114;52.314;8.910;2023-01-15T03:20:25;6.03;;;1.02;;
30307;SDS011;17114;52.314;8.910;2023-01-15T03:22:55;3.67;;;1.42;;
30307;SDS011;17114;52.314;8.910;2023-01-15T03:25:36;3.30;;;1.40;;
30307;SDS011;17114;52.314;8.910;2023-01-15T03:28:08;3.63;;;1.40;;
30307;SDS011;17114;52.314;8.910;2023-01-15T03:30:37;4.30;;;1.30;;
30307;SDS011;17114;52.314;8.910;2023-01-15T03:33:05;6.70;;;1.88;;
30307;SDS011;17114;52.314;8.910;2023-01-15T03:35:53;4.63;;;1.33;;
30307;SDS011;17114;52.314;8.910;2023-01-15T03:38:24;7.68;;;1.45;;
30307;SDS011;17114;52.314;8.910;2023-01-15T03:47:23;5.15;;;1.90;;
30307;SDS011;17114;52.314;8.910;2023-01-15T03:50:45;5.70;;;1.55;;
30307;SDS011;17114;52.314;8.910;2023-01-15T03:53:02;6.50;;;1.60;;
30307;SDS011;17114;52.314;8.910;2023-01-15T03:58:25;4.88;;;2.05;;
30307;SDS011;17114;52.314;8.910;2023-01-15T04:01:02;4.95;;;1.85;;
30307;SDS011;17114;52.314;8.910;2023-01-15T04:03:36;4.80;;;1.83;;
30307;SDS011;17114;52.314;8.910;2023-01-15T04:06:05;4.63;;;1.73;;
30307;SDS011;17114;52.314;8.910;2023-01-15T04:08:35;6.05;;;2.53;;
30307;SDS011;17114;52.314;8.910;2023-01-15T04:11:05;5.72;;;2.28;;
30307;SDS011;17114;52.314;8.910;2023-01-15T04:13:33;6.10;;;1.95;;
30307;SDS011;17114;52.314;8.910;2023-01-15T04:16:01;5.25;;;2.05;;
30307;SDS011;17114;52.314;8.910;2023-01-15T04:18:29;7.05;;;2.17;;
30307;SDS011;17114;52.314;8.910;2023-01-15T04:20:56;7.70;;;2.05;;
30307;SDS011;17114;52.314;8.910;2023-01-15T04:23:23;9.77;;;2.20;;
30307;SDS011;17114;52.314;8.910;2023-01-15T04:25:51;5.10;;;2.15;;
30307;SDS011;17114;52.314;8.910;2023-01-15T04:28:18;7.40;;;1.88;;
30307;SDS011;17114;52.314;8.910;2023-01-15T04:30:45;7.57;;;2.45;;
30307;SDS011;17114;52.314;8.910;2023-01-15T04:33:12;11.32;;;2.10;;
30307;SDS011;17114;52.314;8.910;2023-01-15T04:35:40;8.23;;;2.00;;
30307;SDS011;17114;52.314;8.910;2023-01-15T04:38:07;8.40;;;2.30;;
30307;SDS011;17114;52.314;8.910;2023-01-15T04:40:34;6.72;;;2.22;;
30307;SDS011;17114;52.314;8.910;2023-01-15T04:43:20;7.47;;;1.75;;
30307;SDS011;17114;52.314;8.910;2023-01-15T04:46:07;9.00;;;2.17;;
30307;SDS011;17114;52.314;8.910;2023-01-15T04:48:34;6.00;;;1.83;;
30307;SDS011;17114;52.314;8.910;2023-01-15T04:51:02;4.88;;;1.70;;
30307;SDS011;17114;52.314;8.910;2023-01-15T04:53:30;9.73;;;1.83;;
30307;SDS011;17114;52.314;8.910;2023-01-15T04:56:01;18.98;;;2.15;;
30307;SDS011;17114;52.314;8.910;2023-01-15T04:58:30;9.65;;;1.60;;
30307;SDS011;17114;52.314;8.910;2023-01-15T05:00:58;11.65;;;2.10;;
30307;SDS011;17114;52.314;8.910;2023-01-15T05:03:27;7.88;;;1.80;;
30307;SDS011;17114;52.314;8.910;2023-01-15T05:05:55;6.75;;;1.90;;
30307;SDS011;17114;52.314;8.910;2023-01-15T05:08:28;9.25;;;2.15;;
30307;SDS011;17114;52.314;8.910;2023-01-15T05:10:55;3.78;;;1.70;;
30307;SDS011;17114;52.314;8.910;2023-01-15T05:13:28;9.93;;;1.95;;
30307;SDS011;17114;52.314;8.910;2023-01-15T05:16:13;9.93;;;2.10;;
30307;SDS011;17114;52.314;8.910;2023-01-15T05:18:44;15.18;;;2.25;;
30307;SDS011;17114;52.314;8.910;2023-01-15T05:21:14;8.32;;;2.15;;
30307;SDS011;17114;52.314;8.910;2023-01-15T05:23:43;6.15;;;1.67;;
30307;SDS011;17114;52.314;8.910;2023-01-15T05:26:11;8.65;;;2.65;;
30307;SDS011;17114;52.314;8.910;2023-01-15T05:28:38;11.65;;;2.15;;
30307;SDS011;17114;52.314;8.910;2023-01-15T05:31:07;9.55;;;2.17;;
30307;SDS011;17114;52.314;8.910;2023-01-15T05:33:36;11.30;;;2.20;;
30307;SDS011;17114;52.314;8.910;2023-01-15T05:36:04;11.43;;;2.92;;
30307;SDS011;17114;52.314;8.910;2023-01-15T05:38:34;9.38;;;2.38;;
30307;SDS011;17114;52.314;8.910;2023-01-15T05:41:06;11.50;;;2.65;;
30307;SDS011;17114;52.314;8.910;2023-01-15T05:43:54;8.25;;;2.00;;
30307;SDS011;17114;52.314;8.910;2023-01-15T05:46:22;7.35;;;1.60;;
30307;SDS011;17114;52.314;8.910;2023-01-15T05:48:50;11.75;;;2.15;;
30307;SDS011;17114;52.314;8.910;2023-01-15T05:51:18;8.35;;;2.00;;
30307;SDS011;17114;52.314;8.910;2023-01-15T05:53:45;8.35;;;2.58;;
30307;SDS011;17114;52.314;8.910;2023-01-15T05:56:12;5.50;;;1.58;;
30307;SDS011;17114;52.314;8.910;2023-01-15T05:58:39;8.18;;;1.52;;
30307;SDS011;17114;52.314;8.910;2023-01-15T06:01:07;14.27;;;2.60;;
30307;SDS011;17114;52.314;8.910;2023-01-15T06:03:36;10.60;;;2.58;;
30307;SDS011;17114;52.314;8.910;2023-01-15T06:06:04;15.02;;;3.17;;
30307;SDS011;17114;52.314;8.910;2023-01-15T06:08:31;15.02;;;2.35;;
30307;SDS011;17114;52.314;8.910;2023-01-15T06:10:58;9.50;;;1.40;;
30307;SDS011;17114;52.314;8.910;2023-01-15T06:13:25;7.47;;;1.90;;
30307;SDS011;17114;52.314;8.910;2023-01-15T06:15:52;9.30;;;1.92;;
30307;SDS011;17114;52.314;8.910;2023-01-15T06:18:21;12.40;;;2.00;;
30307;SDS011;17114;52.314;8.910;2023-01-15T06:20:49;6.82;;;1.67;;
30307;SDS011;17114;52.314;8.910;2023-01-15T06:23:17;11.50;;;2.30;;
30307;SDS011;17114;52.314;8.910;2023-01-15T06:25:45;10.55;;;1.90;;
30307;SDS011;17114;52.314;8.910;2023-01-15T06:28:12;11.32;;;2.15;;
30307;SDS011;17114;52.314;8.910;2023-01-15T06:30:40;6.05;;;2.15;;
30307;SDS011;17114;52.314;8.910;2023-01-15T06:33:07;5.80;;;2.50;;
30307;SDS011;17114;52.314;8.910;2023-01-15T06:35:34;10.23;;;2.38;;
30307;SDS011;17114;52.314;8.910;2023-01-15T06:38:01;8.55;;;2.25;;
30307;SDS011;17114;52.314;8.910;2023-01-15T06:40:29;11.00;;;2.40;;
30307;SDS011;17114;52.314;8.910;2023-01-15T06:42:57;12.25;;;2.50;;
30307;SDS011;17114;52.314;8.910;2023-01-15T06:45:43;19.65;;;2.75;;
30307;SDS011;17114;52.314;8.910;2023-01-15T06:48:29;9.02;;;2.15;;
30307;SDS011;17114;52.314;8.910;2023-01-15T06:50:57;11.57;;;2.40;;
30307;SDS011;17114;52.314;8.910;2023-01-15T06:53:25;12.02;;;2.60;;
30307;SDS011;17114;52.314;8.910;2023-01-15T06:55:52;10.48;;;2.65;;
30307;SDS011;17114;52.314;8.910;2023-01-15T06:58:19;14.63;;;2.25;;
30307;SDS011;17114;52.314;8.910;2023-01-15T07:00:48;13.45;;;2.67;;
30307;SDS011;17114;52.314;8.910;2023-01-15T07:03:21;5.30;;;2.00;;
30307;SDS011;17114;52.314;8.910;2023-01-15T07:05:50;12.90;;;2.30;;
30307;SDS011;17114;52.314;8.910;2023-01-15T07:08:18;9.88;;;2.33;;
30307;SDS011;17114;52.314;8.910;2023-01-15T07:10:46;15.43;;;3.00;;
30307;SDS011;17114;52.314;8.910;2023-01-15T07:13:13;7.03;;;2.08;;
30307;SDS011;17114;52.314;8.910;2023-01-15T07:15:41;9.60;;;1.90;;
30307;SDS011;17114;52.314;8.910;2023-01-15T07:18:09;11.02;;;2.55;;
30307;SDS011;17114;52.314;8.910;2023-01-15T07:20:36;12.75;;;2.20;;
30307;SDS011;17114;52.314;8.910;2023-01-15T07:23:03;13.90;;;2.40;;
30307;SDS011;17114;52.314;8.910;2023-01-15T07:25:31;12.60;;;2.00;;
30307;SDS011;17114;52.314;8.910;2023-01-15T07:27:58;15.30;;;2.50;;
30307;SDS011;17114;52.314;8.910;2023-01-15T07:30:26;10.25;;;2.20;;
30307;SDS011;17114;52.314;8.910;2023-01-15T07:32:55;9.40;;;2.30;;
30307;SDS011;17114;52.314;8.910;2023-01-15T07:35:22;6.85;;;1.88;;
30307;SDS011;17114;52.314;8.910;2023-01-15T07:37:50;7.90;;;2.25;;
30307;SDS011;17114;52.314;8.910;2023-01-15T07:40:18;13.27;;;2.35;;
30307;SDS011;17114;52.314;8.910;2023-01-15T07:42:46;10.45;;;2.40;;
30307;SDS011;17114;52.314;8.910;2023-01-15T07:45:32;9.43;;;2.22;;
30307;SDS011;17114;52.314;8.910;2023-01-15T07:48:31;11.50;;;2.83;;
30307;SDS011;17114;52.314;8.910;2023-01-15T07:51:17;13.30;;;2.75;;
30307;SDS011;17114;52.314;8.910;2023-01-15T07:53:45;8.00;;;2.17;;
30307;SDS011;17114;52.314;8.910;2023-01-15T07:56:13;12.45;;;2.63;;
30307;SDS011;17114;52.314;8.910;2023-01-15T07:58:41;11.15;;;2.53;;
30307;SDS011;17114;52.314;8.910;2023-01-15T08:01:10;10.45;;;2.30;;
30307;SDS011;17114;52.314;8.910;2023-01-15T08:03:38;11.95;;;2.90;;
30307;SDS011;17114;52.314;8.910;2023-01-15T08:06:06;8.07;;;2.88;;
30307;SDS011;17114;52.314;8.910;2023-01-15T08:08:34;10.02;;;2.78;;
30307;SDS011;17114;52.314;8.910;2023-01-15T08:11:01;11.35;;;3.10;;
30307;SDS011;17114;52.314;8.910;2023-01-15T08:13:47;9.43;;;2.60;;
30307;SDS011;17114;52.314;8.910;2023-01-15T08:16:34;12.05;;;2.70;;
30307;SDS011;17114;52.314;8.910;2023-01-15T08:19:02;7.80;;;2.45;;
30307;SDS011;17114;52.314;8.910;2023-01-15T08:21:30;14.73;;;2.97;;
30307;SDS011;17114;52.314;8.910;2023-01-15T08:23:58;11.38;;;2.95;;
30307;SDS011;17114;52.314;8.910;2023-01-15T08:26:25;12.68;;;2.80;;
30307;SDS011;17114;52.314;8.910;2023-01-15T08:28:53;10.50;;;2.78;;
30307;SDS011;17114;52.314;8.910;2023-01-15T08:31:20;13.65;;;3.55;;
30307;SDS011;17114;52.314;8.910;2023-01-15T08:33:48;19.10;;;2.53;;
30307;SDS011;17114;52.314;8.910;2023-01-15T08:36:16;10.73;;;2.63;;
30307;SDS011;17114;52.314;8.910;2023-01-15T08:38:44;12.10;;;3.47;;
30307;SDS011;17114;52.314;8.910;2023-01-15T08:43:44;17.98;;;3.42;;
30307;SDS011;17114;52.314;8.910;2023-01-15T08:46:11;19.23;;;3.42;;
30307;SDS011;17114;52.314;8.910;2023-01-15T08:48:39;13.73;;;2.20;;
30307;SDS011;17114;52.314;8.910;2023-01-15T08:51:07;14.25;;;2.78;;
30307;SDS011;17114;52.314;8.910;2023-01-15T08:53:35;10.88;;;2.10;;
30307;SDS011;17114;52.314;8.910;2023-01-15T08:56:03;8.30;;;2.70;;
30307;SDS011;17114;52.314;8.910;2023-01-15T08:58:37;10.90;;;2.90;;
30307;SDS011;17114;52.314;8.910;2023-01-15T09:01:07;12.77;;;3.25;;
30307;SDS011;17114;52.314;8.910;2023-01-15T09:03:36;11.00;;;2.55;;
30307;SDS011;17114;52.314;8.910;2023-01-15T09:06:04;9.95;;;2.72;;
30307;SDS011;17114;52.314;8.910;2023-01-15T09:08:31;8.32;;;2.75;;
30307;SDS011;17114;52.314;8.910;2023-01-15T09:10:59;12.82;;;2.47;;
30307;SDS011;17114;52.314;8.910;2023-01-15T09:13:29;10.40;;;2.28;;
30307;SDS011;17114;52.314;8.910;2023-01-15T09:15:59;11.95;;;2.50;;
30307;SDS011;17114;52.314;8.910;2023-01-15T09:18:26;9.38;;;2.35;;
30307;SDS011;17114;52.314;8.910;2023-01-15T09:20:54;11.18;;;2.15;;
30307;SDS011;17114;52.314;8.910;2023-01-15T09:23:22;8.65;;;2.08;;
30307;SDS011;17114;52.314;8.910;2023-01-15T09:25:54;8.60;;;2.67;;
30307;SDS011;17114;52.314;8.910;2023-01-15T09:28:23;9.52;;;2.20;;
30307;SDS011;17114;52.314;8.910;2023-01-15T09:30:51;16.52;;;3.65;;
30307;SDS011;17114;52.314;8.910;2023-01-15T09:33:18;13.65;;;2.47;;
30307;SDS011;17114;52.314;8.910;2023-01-15T09:35:46;6.15;;;2.45;;
30307;SDS011;17114;52.314;8.910;2023-01-15T09:38:15;13.18;;;3.60;;
30307;SDS011;17114;52.314;8.910;2023-01-15T09:40:52;12.77;;;2.58;;
30307;SDS011;17114;52.314;8.910;2023-01-15T09:43:32;6.18;;;2.42;;
30307;SDS011;17114;52.314;8.910;2023-01-15T09:46:17;8.25;;;2.58;;
30307;SDS011;17114;52.314;8.910;2023-01-15T09:57:07;7.68;;;2.67;;
30307;SDS011;17114;52.314;8.910;2023-01-15T10:02:16;8.18;;;2.33;;
30307;SDS011;17114;52.314;8.910;2023-01-15T10:05:20;5.72;;;2.20;;
30307;SDS011;17114;52.314;8.910;2023-01-15T10:07:57;10.13;;;2.35;;
30307;SDS011;17114;52.314;8.910;2023-01-15T10:10:27;12.32;;;2.67;;
30307;SDS011;17114;52.314;8.910;2023-01-15T10:13:12;8.57;;;2.58;;
30307;SDS011;17114;52.314;8.910;2023-01-15T10:15:43;11.35;;;1.90;;
30307;SDS011;17114;52.314;8.910;2023-01-15T10:18:12;8.98;;;1.85;;
30307;SDS011;17114;52.314;8.910;2023-01-15T10:21:09;11.30;;;2.28;;
30307;SDS011;17114;52.314;8.910;2023-01-15T10:23:46;9.60;;;2.58;;
30307;SDS011;17114;52.314;8.910;2023-01-15T10:29:41;6.47;;;1.90;;
30307;SDS011;17114;52.314;8.910;2023-01-15T10:37:32;9.15;;;2.10;;
30307;SDS011;17114;52.314;8.910;2023-01-15T10:40:11;12.88;;;2.50;;
30307;SDS011;17114;52.314;8.910;2023-01-15T10:51:00;9.23;;;1.90;;
30307;SDS011;17114;52.314;8.910;2023-01-15T10:56:06;9.50;;;2.30;;
30307;SDS011;17114;52.314;8.910;2023-01-15T11:01:53;5.50;;;1.80;;
30307;SDS011;17114;52.314;8.910;2023-01-15T11:04:23;7.53;;;2.20;;
30307;SDS011;17114;52.314;8.910;2023-01-15T11:06:54;6.95;;;1.83;;
30307;SDS011;17114;52.314;8.910;2023-01-15T11:09:23;9.60;;;2.10;;
30307;SDS011;17114;52.314;8.910;2023-01-15T11:12:05;3.45;;;1.60;;
30307;SDS011;17114;52.314;8.910;2023-01-15T11:14:45;5.07;;;1.73;;
30307;SDS011;17114;52.314;8.910;2023-01-15T11:20:35;7.13;;;2.15;;
30307;SDS011;17114;52.314;8.910;2023-01-15T11:23:14;9.00;;;2.30;;
30307;SDS011;17114;52.314;8.910;2023-01-15T11:31:18;7.40;;;1.95;;
30307;SDS011;17114;52.314;8.910;2023-01-15T11:34:02;4.65;;;1.58;;
30307;SDS011;17114;52.314;8.910;2023-01-15T11:36:31;4.97;;;1.75;;
30307;SDS011;17114;52.314;8.910;2023-01-15T11:39:00;6.72;;;2.13;;
30307;SDS011;17114;52.314;8.910;2023-01-15T11:41:29;7.93;;;1.80;;
30307;SDS011;17114;52.314;8.910;2023-01-15T11:44:20;6.82;;;1.98;;
30307;SDS011;17114;52.314;8.910;2023-01-15T11:47:11;7.22;;;1.83;;
30307;SDS011;17114;52.314;8.910;2023-01-15T11:49:59;7.78;;;1.85;;
30307;SDS011;17114;52.314;8.910;2023-01-15T11:52:51;7.22;;;1.98;;
30307;SDS011;17114;52.314;8.910;2023-01-15T11:55:24;4.88;;;1.50;;
30307;SDS011;17114;52.314;8.910;2023-01-15T11:57:54;6.00;;;1.90;;
30307;SDS011;17114;52.314;8.910;2023-01-15T12:00:23;5.32;;;1.58;;
30307;SDS011;17114;52.314;8.910;2023-01-15T12:03:03;7.43;;;1.88;;
30307;SDS011;17114;52.314;8.910;2023-01-15T12:05:43;10.38;;;1.65;;
30307;SDS011;17114;52.314;8.910;2023-01-15T12:08:30;5.93;;;1.77;;
30307;SDS011;17114;52.314;8.910;2023-01-15T12:17:03;6.68;;;1.52;;
30307;SDS011;17114;52.314;8.910;2023-01-15T12:26:04;5.70;;;1.73;;
30307;SDS011;17114;52.314;8.910;2023-01-15T12:31:50;6.55;;;1.90;;
30307;SDS011;17114;52.314;8.910;2023-01-15T12:37:23;3.78;;;1.45;;
30307;SDS011;17114;52.314;8.910;2023-01-15T12:42:45;6.20;;;1.50;;
30307;SDS011;17114;52.314;8.910;2023-01-15T12:45:37;7.95;;;1.83;;
30307;SDS011;17114;52.314;8.910;2023-01-15T12:48:21;12.85;;;1.98;;
30307;SDS011;17114;52.314;8.910;2023-01-15T12:50:56;6.85;;;1.80;;
30307;SDS011;17114;52.314;8.910;2023-01-15T12:58:49;9.10;;;1.75;;
30307;SDS011;17114;52.314;8.910;2023-01-15T13:01:22;6.70;;;1.80;;
30307;SDS011;17114;52.314;8.910;2023-01-15T13:06:31;9.15;;;1.52;;
30307;SDS011;17114;52.314;8.910;2023-01-15T13:11:44;9.50;;;1.55;;
30307;SDS011;17114;52.314;8.910;2023-01-15T13:14:15;5.75;;;1.55;;
30307;SDS011;17114;52.314;8.910;2023-01-15T13:22:04;11.77;;;2.67;;
30307;SDS011;17114;52.314;8.910;2023-01-15T13:24:53;10.07;;;2.20;;
30307;SDS011;17114;52.314;8.910;2023-01-15T13:27:50;13.15;;;1.90;;
30307;SDS011;17114;52.314;8.910;2023-01-15T13:33:35;8.65;;;1.85;;
30307;SDS011;17114;52.314;8.910;2023-01-15T13:36:11;13.63;;;2.97;;
30307;SDS011;17114;52.314;8.910;2023-01-15T13:38:47;12.02;;;2.80;;
30307;SDS011;17114;52.314;8.910;2023-01-15T13:41:30;16.35;;;3.92;;
30307;SDS011;17114;52.314;8.910;2023-01-15T13:46:58;7.65;;;1.40;;
30307;SDS011;17114;52.314;8.910;2023-01-15T13:49:52;8.07;;;1.67;;
30307;SDS011;17114;52.314;8.910;2023-01-15T13:52:49;7.47;;;1.45;;
30307;SDS011;17114;52.314;8.910;2023-01-15T13:58:58;15.93;;;2.65;;
30307;SDS011;17114;52.314;8.910;2023-01-15T14:01:35;10.38;;;1.80;;
30307;SDS011;17114;52.314;8.910;2023-01-15T14:06:50;5.53;;;2.05;;
30307;SDS011;17114;52.314;8.910;2023-01-15T14:17:57;11.82;;;1.90;;
30307;SDS011;17114;52.314;8.910;2023-01-15T14:29:25;4.13;;;1.42;;
30307;SDS011;17114;52.314;8.910;2023-01-15T14:34:58;5.65;;;1.70;;
30307;SDS011;17114;52.314;8.910;2023-01-15T14:37:32;5.28;;;1.88;;
30307;SDS011;17114;52.314;8.910;2023-01-15T14:40:28;6.53;;;1.73;;
30307;SDS011;17114;52.314;8.910;2023-01-15T14:43:00;9.07;;;1.80;;
30307;SDS011;17114;52.314;8.910;2023-01-15T14:51:06;6.63;;;2.00;;
30307;SDS011;17114;52.314;8.910;2023-01-15T14:53:48;7.00;;;1.67;;
30307;SDS011;17114;52.314;8.910;2023-01-15T14:56:28;6.57;;;1.42;;
30307;SDS011;17114;52.314;8.910;2023-01-15T15:01:42;7.75;;;2.22;;
30307;SDS011;17114;52.314;8.910;2023-01-15T15:07:20;3.65;;;1.33;;
30307;SDS011;17114;52.314;8.910;2023-01-15T15:14:57;4.78;;;1.75;;
30307;SDS011;17114;52.314;8.910;2023-01-15T15:17:56;5.05;;;1.80;;
30307;SDS011;17114;52.314;8.910;2023-01-15T15:20:48;9.55;;;2.13;;
30307;SDS011;17114;52.314;8.910;2023-01-15T15:23:52;8.95;;;2.00;;
30307;SDS011;17114;52.314;8.910;2023-01-15T15:26:37;7.55;;;2.10;;
30307;SDS011;17114;52.314;8.910;2023-01-15T15:29:16;6.93;;;1.92;;
30307;SDS011;17114;52.314;8.910;2023-01-15T15:31:46;5.20;;;1.70;;
30307;SDS011;17114;52.314;8.910;2023-01-15T15:37:02;5.65;;;1.55;;
30307;SDS011;17114;52.314;8.910;2023-01-15T15:39:50;7.00;;;1.83;;
30307;SDS011;17114;52.314;8.910;2023-01-15T15:42:20;5.93;;;1.63;;
30307;SDS011;17114;52.314;8.910;2023-01-15T15:45:26;8.60;;;1.92;;
30307;SDS011;17114;52.314;8.910;2023-01-15T15:56:57;9.82;;;2.15;;
30307;SDS011;17114;52.314;8.910;2023-01-15T15:59:36;7.38;;;1.85;;
30307;SDS011;17114;52.314;8.910;2023-01-15T16:02:17;8.20;;;1.70;;
30307;SDS011;17114;52.314;8.910;2023-01-15T16:07:49;5.40;;;1.83;;
30307;SDS011;17114;52.314;8.910;2023-01-15T16:10:25;5.05;;;1.58;;
30307;SDS011;17114;52.314;8.910;2023-01-15T16:13:02;4.65;;;2.05;;
30307;SDS011;17114;52.314;8.910;2023-01-15T16:15:35;5.70;;;2.03;;
30307;SDS011;17114;52.314;8.910;2023-01-15T16:18:15;8.57;;;1.95;;
30307;SDS011;17114;52.314;8.910;2023-01-15T16:20:57;8.95;;;2.33;;
30307;SDS011;17114;52.314;8.910;2023-01-15T16:23:26;9.10;;;2.42;;
30307;SDS011;17114;52.314;8.910;2023-01-15T16:25:55;5.40;;;2.22;;
30307;SDS011;17114;52.314;8.910;2023-01-15T16:28:38;6.30;;;1.80;;
30307;SDS011;17114;52.314;8.910;2023-01-15T16:31:11;4.78;;;1.80;;
30307;SDS011;17114;52.314;8.910;2023-01-15T16:33:41;8.35;;;1.77;;
30307;SDS011;17114;52.314;8.910;2023-01-15T16:36:09;4.25;;;1.98;;
30307;SDS011;17114;52.314;8.910;2023-01-15T16:38:41;4.25;;;1.40;;
30307;SDS011;17114;52.314;8.910;2023-01-15T16:43:57;14.50;;;2.38;;
30307;SDS011;17114;52.314;8.910;2023-01-15T16:46:27;2.72;;;1.23;;
30307;SDS011;17114;52.314;8.910;2023-01-15T16:49:18;6.07;;;1.38;;
30307;SDS011;17114;52.314;8.910;2023-01-15T16:51:56;6.72;;;2.35;;
30307;SDS011;17114;52.314;8.910;2023-01-15T16:56:56;4.95;;;1.70;;
30307;SDS011;17114;52.314;8.910;2023-01-15T17:04:43;5.27;;;1.50;;
30307;SDS011;17114;52.314;8.910;2023-01-15T17:07:26;6.75;;;1.90;;
30307;SDS011;17114;52.314;8.910;2023-01-15T17:10:05;6.47;;;1.70;;
30307;SDS011;17114;52.314;8.910;2023-01-15T17:12:45;6.88;;;1.88;;
30307;SDS011;17114;52.314;8.910;2023-01-15T17:17:49;5.88;;;2.42;;
30307;SDS011;17114;52.314;8.910;2023-01-15T17:20:19;8.75;;;2.72;;
30307;SDS011;17114;52.314;8.910;2023-01-15T17:22:53;10.15;;;2.30;;
30307;SDS011;17114;52.314;8.910;2023-01-15T17:25:23;6.70;;;1.83;;
30307;SDS011;17114;52.314;8.910;2023-01-15T17:27:53;7.35;;;1.98;;
30307;SDS011;17114;52.314;8.910;2023-01-15T17:30:21;6.75;;;2.10;;
30307;SDS011;17114;52.314;8.910;2023-01-15T17:32:57;7.35;;;1.92;;
30307;SDS011;17114;52.314;8.910;2023-01-15T17:35:29;7.47;;;2.08;;
30307;SDS011;17114;52.314;8.910;2023-01-15T17:38:02;3.75;;;1.48;;
30307;SDS011;17114;52.314;8.910;2023-01-15T17:40:30;5.72;;;2.08;;
30307;SDS011;17114;52.314;8.910;2023-01-15T17:42:58;7.93;;;2.35;;
30307;SDS011;17114;52.314;8.910;2023-01-15T17:45:29;6.25;;;1.95;;
30307;SDS011;17114;52.314;8.910;2023-01-15T17:48:00;5.45;;;1.92;;
30307;SDS011;17114;52.314;8.910;2023-01-15T17:50:30;5.00;;;1.60;;
30307;SDS011;17114;52.314;8.910;2023-01-15T17:52:57;7.13;;;1.80;;
30307;SDS011;17114;52.314;8.910;2023-01-15T17:55:25;10.10;;;1.85;;
30307;SDS011;17114;52.314;8.910;2023-01-15T17:58:12;6.50;;;1.60;;
30307;SDS011;17114;52.314;8.910;2023-01-15T18:01:00;9.15;;;2.15;;
30307;SDS011;17114;52.314;8.910;2023-01-15T18:03:50;5.00;;;1.50;;
30307;SDS011;17114;52.314;8.910;2023-01-15T18:06:37;4.93;;;1.50;;
30307;SDS011;17114;52.314;8.910;2023-01-15T18:09:11;6.30;;;1.73;;
30307;SDS011;17114;52.314;8.910;2023-01-15T18:11:40;9.25;;;1.85;;
30307;SDS011;17114;52.314;8.910;2023-01-15T18:14:08;4.85;;;1.58;;
30307;SDS011;17114;52.314;8.910;2023-01-15T18:16:36;7.60;;;1.85;;
30307;SDS011;17114;52.314;8.910;2023-01-15T18:19:05;6.03;;;1.60;;
30307;SDS011;17114;52.314;8.910;2023-01-15T18:21:35;5.18;;;1.83;;
30307;SDS011;17114;52.314;8.910;2023-01-15T18:24:05;3.90;;;1.73;;
30307;SDS011;17114;52.314;8.910;2023-01-15T18:26:36;6.55;;;1.95;;
30307;SDS011;17114;52.314;8.910;2023-01-15T18:29:08;5.68;;;1.67;;